createdAt,value
2022-12-19T00:00:40.683Z,90.42
2022-12-19T00:02:42.796Z,90.82
2022-12-19T00:04:45.565Z,90.82
2022-12-19T00:06:47.627Z,90.62
2022-12-19T00:08:51.513Z,90.85
2022-12-19T00:10:57.021Z,90.41
2022-12-19T00:12:58.934Z,90.37
2022-12-19T00:15:00.819Z,90.63
2022-12-19T00:17:03.906Z,90.65
2022-12-19T00:19:06.108Z,89.77
2022-12-19T00:21:08.816Z,90.50
2022-12-19T00:23:11.240Z,91.19
2022-12-19T00:25:13.216Z,90.89
2022-12-19T00:27:16.336Z,91.21
2022-12-19T00:29:18.439Z,91.02
2022-12-19T00:31:22.625Z,91.17
2022-12-19T00:33:24.604Z,90.76
2022-12-19T00:35:26.588Z,91.59
2022-12-19T00:37:28.478Z,91.40
2022-12-19T00:39:30.410Z,91.19
2022-12-19T00:41:34.788Z,91.36
2022-12-19T00:43:37.220Z,91.35
2022-12-19T00:45:39.358Z,91.30
2022-12-19T00:47:41.344Z,91.30
2022-12-19T00:49:43.246Z,91.43
2022-12-19T00:51:46.314Z,90.77
2022-12-19T00:53:50.109Z,90.75
2022-12-19T00:55:52.033Z,92.31
2022-12-19T00:57:53.990Z,91.33
2022-12-19T00:59:59.224Z,91.54
2022-12-19T01:02:01.203Z,91.96
2022-12-19T01:06:28.099Z,91.48
2022-12-19T01:08:30.450Z,91.52
2022-12-19T01:10:33.390Z,91.82
2022-12-19T01:12:38.532Z,91.70
2022-12-19T01:14:40.424Z,91.13
2022-12-19T01:16:42.378Z,92.03
2022-12-19T01:18:44.275Z,91.84
2022-12-19T01:20:47.754Z,90.94
2022-12-19T01:22:49.689Z,90.20
2022-12-19T01:24:51.550Z,90.66
2022-12-19T01:26:53.496Z,90.55
2022-12-19T01:28:55.404Z,90.83
2022-12-19T01:30:57.830Z,90.41
2022-12-19T01:33:01.191Z,89.83
2022-12-19T01:35:04.212Z,90.54
2022-12-19T01:37:06.148Z,90.08
2022-12-19T01:39:08.728Z,89.57
2022-12-19T01:41:10.869Z,90.15
2022-12-19T01:43:15.113Z,89.73
2022-12-19T01:45:17.756Z,89.98
2022-12-19T01:47:19.844Z,89.83
2022-12-19T01:49:28.221Z,89.62
2022-12-19T01:51:36.386Z,89.68
2022-12-19T01:53:49.814Z,89.38
2022-12-19T01:55:52.349Z,89.13
2022-12-19T01:57:56.180Z,90.76
2022-12-19T02:00:00.302Z,90.84
2022-12-19T02:02:11.828Z,90.26
2022-12-19T02:04:14.821Z,90.49
2022-12-19T02:06:16.873Z,89.81
2022-12-19T02:08:19.206Z,91.36
2022-12-19T02:10:21.395Z,91.94
2022-12-19T02:12:25.825Z,91.95
2022-12-19T02:14:28.508Z,92.34
2022-12-19T02:16:36.746Z,92.66
2022-12-19T02:18:48.378Z,92.15
2022-12-19T02:20:56.430Z,92.03
2022-12-19T02:23:00.075Z,92.56
2022-12-19T02:25:06.531Z,92.88
2022-12-19T02:27:22.312Z,91.62
2022-12-19T02:29:37.337Z,91.40
2022-12-19T02:31:44.185Z,91.45
2022-12-19T02:33:56.214Z,91.09
2022-12-19T02:36:08.506Z,90.83
2022-12-19T02:38:15.959Z,91.53
2022-12-19T02:40:24.432Z,91.91
2022-12-19T02:42:31.973Z,91.29
2022-12-19T02:44:38.770Z,90.80
2022-12-19T02:46:43.556Z,91.01
2022-12-19T02:48:47.747Z,90.63
2022-12-19T02:50:50.383Z,90.01
2022-12-19T02:52:52.835Z,90.01
2022-12-19T02:55:01.802Z,90.18
2022-12-19T02:57:19.128Z,90.07
2022-12-19T02:59:33.115Z,90.66
2022-12-19T03:01:39.736Z,90.21
2022-12-19T03:03:46.259Z,90.03
2022-12-19T03:05:54.535Z,90.24
2022-12-19T03:07:59.289Z,90.25
2022-12-19T03:10:13.287Z,90.28
2022-12-19T03:12:21.214Z,90.38
2022-12-19T03:14:24.640Z,90.59
2022-12-19T03:16:27.390Z,90.58
2022-12-19T03:18:29.580Z,90.91
2022-12-19T03:20:34.268Z,90.68
2022-12-19T03:22:36.417Z,91.11
2022-12-19T03:24:38.388Z,90.53
2022-12-19T03:26:45.162Z,90.76
2022-12-19T03:28:50.313Z,90.23
2022-12-19T03:30:54.359Z,90.60
2022-12-19T03:32:56.827Z,90.26
2022-12-19T03:35:04.536Z,90.27
2022-12-19T03:37:10.695Z,91.65
2022-12-19T03:39:16.421Z,91.46
2022-12-19T03:41:41.250Z,91.58
2022-12-19T03:43:45.644Z,90.49
2022-12-19T03:45:52.424Z,90.16
2022-12-19T03:48:00.412Z,89.61
2022-12-19T03:50:02.605Z,89.96
2022-12-19T03:52:10.766Z,89.77
2022-12-19T03:54:19.238Z,89.25
2022-12-19T03:56:27.339Z,88.95
2022-12-19T03:58:36.533Z,88.84
2022-12-19T04:00:41.673Z,88.68
2022-12-19T04:02:47.589Z,88.94
2022-12-19T04:04:56.908Z,89.00
2022-12-19T04:06:59.987Z,88.99
2022-12-19T04:09:03.239Z,88.50
2022-12-19T04:11:11.418Z,88.33
2022-12-19T04:13:17.286Z,88.35
2022-12-19T04:15:27.131Z,88.68
2022-12-19T04:17:37.459Z,88.28
2022-12-19T04:19:45.038Z,88.68
2022-12-19T04:21:53.323Z,88.70
2022-12-19T04:24:02.925Z,88.55
2022-12-19T04:26:05.924Z,88.43
2022-12-19T04:28:14.121Z,88.22
2022-12-19T04:30:17.953Z,88.63
2022-12-19T04:32:21.004Z,88.53
2022-12-19T04:34:22.915Z,88.69
2022-12-19T04:36:26.699Z,88.73
2022-12-19T04:38:28.815Z,88.14
2022-12-19T04:40:30.741Z,88.28
2022-12-19T04:42:32.671Z,88.69
2022-12-19T04:44:34.594Z,88.21
2022-12-19T04:46:36.551Z,88.88
2022-12-19T04:48:38.668Z,89.02
2022-12-19T04:50:40.824Z,89.34
2022-12-19T04:52:42.724Z,89.49
2022-12-19T04:54:44.676Z,90.08
2022-12-19T04:56:46.724Z,90.83
2022-12-19T04:58:48.792Z,90.81
2022-12-19T05:00:50.696Z,91.25
2022-12-19T05:02:52.886Z,91.03
2022-12-19T05:04:55.286Z,90.85
2022-12-19T05:06:57.655Z,91.07
2022-12-19T05:09:01.136Z,91.39
2022-12-19T05:11:04.384Z,91.51
2022-12-19T05:13:06.326Z,91.79
2022-12-19T05:15:09.356Z,91.56
2022-12-19T05:17:11.347Z,91.79
2022-12-19T05:19:13.364Z,92.79
2022-12-19T05:21:15.290Z,92.15
2022-12-19T05:23:17.895Z,91.75
2022-12-19T05:25:19.920Z,91.98
2022-12-19T05:27:22.015Z,91.23
2022-12-19T05:29:24.236Z,91.08
2022-12-19T05:31:26.213Z,91.16
2022-12-19T05:33:28.209Z,90.75
2022-12-19T05:35:30.310Z,91.10
2022-12-19T05:37:32.249Z,91.05
2022-12-19T05:39:35.182Z,91.46
2022-12-19T05:41:37.154Z,90.92
2022-12-19T05:43:39.123Z,90.63
2022-12-19T05:45:41.089Z,90.13
2022-12-19T05:47:46.770Z,89.89
2022-12-19T05:49:48.648Z,89.74
2022-12-19T05:51:50.647Z,89.60
2022-12-19T05:53:52.589Z,89.16
2022-12-19T05:56:05.307Z,89.60
2022-12-19T05:58:07.200Z,89.23
2022-12-19T06:00:10.086Z,88.95
2022-12-19T06:02:12.058Z,89.67
2022-12-19T06:04:14.208Z,88.89
2022-12-19T06:06:18.461Z,89.03
2022-12-19T06:08:20.379Z,88.61
2022-12-19T06:10:22.458Z,88.47
2022-12-19T06:12:24.379Z,88.42
2022-12-19T06:14:26.939Z,89.41
2022-12-19T06:16:28.992Z,89.21
2022-12-19T06:18:31.668Z,89.17
2022-12-19T06:20:33.567Z,89.23
2022-12-19T06:22:35.534Z,89.40
2022-12-19T06:24:37.642Z,89.27
2022-12-19T06:26:39.539Z,89.30
2022-12-19T06:28:41.509Z,89.17
2022-12-19T06:30:43.526Z,89.30
2022-12-19T06:32:45.518Z,89.78
2022-12-19T06:35:03.685Z,89.91
2022-12-19T06:37:08.311Z,89.64
2022-12-19T06:39:14.346Z,89.80
2022-12-19T06:41:20.742Z,89.95
2022-12-19T06:43:26.345Z,90.63
2022-12-19T06:45:28.291Z,90.45
2022-12-19T06:47:30.366Z,90.32
2022-12-19T06:49:32.604Z,90.21
2022-12-19T06:51:35.294Z,91.17
2022-12-19T06:53:37.219Z,90.29
2022-12-19T06:55:39.426Z,90.36
2022-12-19T06:57:46.121Z,89.87
2022-12-19T06:59:48.097Z,89.57
2022-12-19T07:01:53.677Z,89.61
2022-12-19T07:03:56.093Z,89.39
2022-12-19T07:05:58.153Z,89.37
2022-12-19T07:08:00.538Z,89.96
2022-12-19T07:10:02.610Z,90.13
2022-12-19T07:12:05.121Z,90.05
2022-12-19T07:14:07.069Z,89.66
2022-12-19T07:16:12.429Z,89.81
2022-12-19T07:18:14.556Z,89.78
2022-12-19T07:20:17.753Z,90.20
2022-12-19T07:22:19.975Z,89.86
2022-12-19T07:24:22.306Z,89.36
2022-12-19T07:26:24.249Z,89.74
2022-12-19T07:28:26.387Z,89.88
2022-12-19T07:30:28.631Z,89.71
2022-12-19T07:32:30.611Z,89.18
2022-12-19T07:34:32.650Z,89.10
2022-12-19T07:36:34.545Z,88.39
2022-12-19T07:38:36.851Z,88.23
2022-12-19T07:40:38.828Z,88.10
2022-12-19T07:42:40.750Z,88.12
2022-12-19T07:44:42.651Z,87.66
2022-12-19T07:46:45.315Z,87.53
2022-12-19T07:48:47.269Z,87.72
2022-12-19T07:50:49.434Z,88.55
2022-12-19T07:52:51.367Z,88.47
2022-12-19T07:54:53.353Z,88.01
2022-12-19T07:56:55.284Z,88.11
2022-12-19T07:58:57.400Z,87.72
2022-12-19T08:01:01.043Z,87.67
2022-12-19T08:03:03.226Z,87.23
2022-12-19T08:05:06.192Z,87.47
2022-12-19T08:07:08.175Z,87.20
2022-12-19T08:09:10.452Z,87.85
2022-12-19T08:11:17.434Z,89.21
2022-12-19T08:13:19.358Z,88.37
2022-12-19T08:15:21.372Z,88.38
2022-12-19T08:17:23.404Z,87.93
2022-12-19T08:19:27.657Z,89.13
2022-12-19T08:21:30.779Z,88.89
2022-12-19T08:23:33.512Z,88.62
2022-12-19T08:25:35.419Z,88.65
2022-12-19T08:27:37.436Z,88.31
2022-12-19T08:29:39.752Z,87.68
2022-12-19T08:31:41.690Z,88.57
2022-12-19T08:33:44.155Z,87.78
2022-12-19T08:35:46.167Z,87.80
2022-12-19T08:37:48.166Z,87.96
2022-12-19T08:39:50.274Z,88.22
2022-12-19T08:41:52.450Z,87.61
2022-12-19T08:43:55.503Z,87.37
2022-12-19T08:45:58.595Z,87.49
2022-12-19T08:48:00.628Z,87.50
2022-12-19T08:50:02.657Z,87.62
2022-12-19T08:52:04.687Z,87.67
2022-12-19T08:54:09.245Z,87.58
2022-12-19T08:56:17.699Z,87.19
2022-12-19T08:58:19.744Z,86.91
2022-12-19T09:00:22.314Z,86.40
2022-12-19T09:02:25.907Z,85.90
2022-12-19T09:05:57.669Z,85.24
2022-12-19T09:06:50.605Z,85.27
2022-12-19T09:08:53.808Z,85.20
2022-12-19T09:11:06.635Z,85.50
2022-12-19T09:13:08.936Z,85.41
2022-12-19T09:15:11.219Z,84.55
2022-12-19T09:17:13.550Z,84.48
2022-12-19T09:19:16.661Z,84.79
2022-12-19T09:21:20.724Z,84.71
2022-12-19T09:23:23.613Z,84.59
2022-12-19T09:25:25.638Z,84.46
2022-12-19T09:27:27.622Z,84.27
2022-12-19T09:29:34.896Z,84.35
2022-12-19T09:31:37.875Z,84.74
2022-12-19T09:33:43.670Z,85.13
2022-12-19T09:35:49.857Z,84.79
2022-12-19T09:37:59.760Z,84.71
2022-12-19T09:40:02.261Z,85.54
2022-12-19T09:42:10.542Z,85.25
2022-12-19T09:44:16.161Z,85.01
2022-12-19T09:46:24.031Z,85.47
2022-12-19T09:48:26.099Z,85.48
2022-12-19T09:50:36.278Z,86.05
2022-12-19T09:52:46.349Z,85.77
2022-12-19T09:54:51.912Z,85.73
2022-12-19T09:57:00.003Z,86.50
2022-12-19T09:59:14.109Z,86.61
2022-12-19T10:01:22.769Z,86.20
2022-12-19T10:03:26.738Z,86.98
2022-12-19T10:06:11.411Z,86.32
2022-12-19T10:08:09.853Z,86.70
2022-12-19T10:12:40.406Z,86.86
2022-12-19T10:12:49.252Z,86.47
2022-12-19T10:14:57.112Z,86.72
2022-12-19T10:17:24.283Z,86.67
2022-12-19T10:19:33.271Z,87.16
2022-12-19T10:24:12.842Z,87.12
2022-12-19T10:26:16.624Z,88.10
2022-12-19T10:28:24.854Z,87.50
2022-12-19T10:30:29.148Z,87.30
2022-12-19T10:32:43.529Z,87.21
2022-12-19T10:34:48.549Z,87.33
2022-12-19T10:39:29.297Z,87.56
2022-12-19T10:41:32.793Z,87.89
2022-12-19T10:43:46.688Z,87.69
2022-12-19T10:45:54.381Z,87.44
2022-12-19T10:47:58.327Z,87.85
2022-12-19T10:50:04.041Z,87.78
2022-12-19T10:52:11.767Z,87.62
2022-12-19T10:54:13.864Z,88.53
2022-12-19T10:56:31.705Z,88.57
2022-12-19T10:58:38.394Z,88.90
2022-12-19T11:00:46.584Z,89.92
2022-12-19T11:02:53.838Z,89.19
2022-12-19T11:04:56.024Z,89.92
2022-12-19T11:07:01.540Z,90.41
2022-12-19T11:09:09.742Z,90.80
2022-12-19T11:13:18.511Z,90.74
2022-12-19T11:17:35.246Z,90.98
2022-12-19T11:21:44.191Z,91.42
2022-12-19T11:27:25.471Z,91.11
2022-12-19T11:29:25.862Z,91.27
2022-12-19T11:30:09.082Z,91.66
2022-12-19T11:30:46.259Z,91.57
2022-12-19T11:30:49.024Z,91.48
2022-12-19T11:31:51.041Z,90.74
2022-12-19T11:33:19.821Z,91.18
2022-12-19T11:35:36.511Z,91.22
2022-12-19T11:37:55.092Z,90.88
2022-12-19T11:40:03.669Z,91.11
2022-12-19T11:42:17.252Z,91.27
2022-12-19T11:44:29.943Z,91.02
2022-12-19T11:46:38.711Z,91.73
2022-12-19T11:48:47.256Z,91.94
2022-12-19T11:50:53.889Z,91.38
2022-12-19T11:53:06.646Z,90.82
2022-12-19T11:55:16.979Z,91.48
2022-12-19T11:57:19.345Z,91.01
2022-12-19T11:59:27.205Z,91.15
2022-12-19T12:01:33.779Z,90.99
2022-12-19T12:03:39.441Z,90.86
2022-12-19T12:05:44.574Z,91.00
2022-12-19T12:09:10.488Z,90.71
2022-12-19T12:14:41.428Z,90.47
2022-12-19T12:18:53.381Z,90.03
2022-12-19T12:27:27.514Z,89.60
2022-12-19T12:30:59.798Z,89.26
2022-12-19T12:31:22.092Z,89.44
2022-12-19T12:31:38.594Z,88.25
2022-12-19T12:31:48.721Z,89.11
2022-12-19T12:32:05.068Z,89.02
2022-12-19T12:32:05.784Z,89.19
2022-12-19T12:35:38.053Z,88.33
2022-12-19T12:37:49.462Z,87.89
2022-12-19T12:40:16.015Z,87.70
2022-12-19T12:42:29.913Z,87.64
2022-12-19T12:44:42.873Z,88.53
2022-12-19T12:47:01.625Z,88.05
2022-12-19T12:49:06.704Z,87.75
2022-12-19T12:51:10.775Z,88.81
2022-12-19T12:53:16.461Z,88.06
2022-12-19T12:55:24.727Z,87.63
2022-12-19T12:57:29.008Z,87.68
2022-12-19T12:59:32.638Z,87.92
2022-12-19T13:01:39.187Z,87.63
2022-12-19T13:03:43.062Z,87.80
2022-12-19T13:05:47.055Z,87.53
2022-12-19T13:07:53.696Z,86.89
2022-12-19T13:10:16.628Z,86.64
2022-12-19T13:12:28.782Z,86.86
2022-12-19T13:14:35.942Z,86.44
2022-12-19T13:16:44.550Z,86.87
2022-12-19T13:19:19.584Z,86.96
2022-12-19T13:21:23.411Z,87.38
2022-12-19T13:23:30.254Z,86.80
2022-12-19T13:25:36.833Z,87.07
2022-12-19T13:27:40.823Z,87.59
2022-12-19T13:29:49.276Z,87.18
2022-12-19T13:32:09.285Z,86.56
2022-12-19T13:34:18.582Z,86.31
2022-12-19T13:39:50.137Z,86.59
2022-12-19T13:39:58.316Z,86.30
2022-12-19T13:41:22.597Z,86.63
2022-12-19T13:43:40.712Z,86.44
2022-12-19T13:45:50.221Z,86.67
2022-12-19T13:47:56.003Z,86.68
2022-12-19T13:49:59.198Z,86.34
2022-12-19T13:52:01.266Z,86.19
2022-12-19T13:54:03.483Z,86.50
2022-12-19T13:56:13.910Z,86.35
2022-12-19T13:58:29.152Z,86.24
2022-12-19T14:00:40.387Z,86.35
2022-12-19T14:02:47.969Z,86.59
2022-12-19T14:04:50.528Z,86.90
2022-12-19T14:07:01.121Z,86.98
2022-12-19T14:11:26.253Z,86.58
2022-12-19T14:12:08.444Z,86.34
2022-12-19T14:14:08.130Z,86.20
2022-12-19T14:16:18.704Z,86.03
2022-12-19T14:18:42.549Z,86.30
2022-12-19T14:22:09.845Z,86.49
2022-12-19T14:23:11.352Z,86.23
2022-12-19T14:26:56.977Z,86.46
2022-12-19T14:28:24.034Z,86.86
2022-12-19T14:30:30.601Z,86.55
2022-12-19T14:33:40.325Z,86.98
2022-12-19T14:36:05.320Z,86.22
2022-12-19T14:37:20.680Z,86.15
2022-12-19T14:39:35.091Z,85.87
2022-12-19T14:41:45.472Z,85.60
2022-12-19T14:43:59.599Z,86.15
2022-12-19T14:52:34.388Z,85.49
2022-12-19T14:54:11.327Z,86.35
2022-12-19T14:54:22.567Z,85.91
2022-12-19T14:55:09.415Z,86.02
2022-12-19T14:56:57.575Z,85.90
2022-12-19T14:58:57.682Z,86.11
2022-12-19T15:01:09.246Z,85.71
2022-12-19T15:03:22.321Z,85.93
2022-12-19T15:05:25.249Z,85.70
2022-12-19T15:07:29.862Z,85.27
2022-12-19T15:11:02.798Z,85.43
2022-12-19T15:14:46.740Z,84.73
2022-12-19T15:14:53.359Z,85.14
2022-12-19T15:17:03.362Z,85.24
2022-12-19T15:19:13.380Z,84.91
2022-12-19T15:21:15.447Z,84.78
2022-12-19T15:23:21.965Z,85.01
2022-12-19T15:26:01.196Z,85.26
2022-12-19T15:27:47.639Z,85.60
2022-12-19T15:29:49.665Z,85.92
2022-12-19T15:31:51.741Z,85.71
2022-12-19T15:34:32.212Z,85.61
2022-12-19T15:36:15.972Z,85.75
2022-12-19T15:38:18.113Z,85.84
2022-12-19T15:40:20.276Z,85.62
2022-12-19T15:42:26.404Z,85.63
2022-12-19T15:44:33.187Z,86.07
2022-12-19T15:46:35.325Z,86.41
2022-12-19T15:48:40.889Z,86.70
2022-12-19T15:50:44.512Z,86.62
2022-12-19T15:52:47.229Z,86.37
2022-12-19T15:54:50.521Z,86.11
2022-12-19T15:56:55.493Z,86.54
2022-12-19T15:59:00.135Z,86.91
2022-12-19T16:01:04.826Z,86.14
2022-12-19T16:03:27.898Z,86.50
2022-12-19T16:05:30.270Z,87.27
2022-12-19T16:07:32.570Z,87.05
2022-12-19T16:09:34.668Z,86.88
2022-12-19T16:11:36.905Z,86.56
2022-12-19T16:13:47.401Z,87.58
2022-12-19T16:15:49.859Z,87.35
2022-12-19T16:17:52.484Z,87.51
2022-12-19T16:19:54.604Z,87.93
2022-12-19T16:21:57.727Z,87.98
2022-12-19T16:24:00.107Z,87.58
2022-12-19T16:26:02.499Z,87.86
2022-12-19T16:28:06.528Z,88.07
2022-12-19T16:30:18.196Z,87.44
2022-12-19T16:32:24.495Z,87.20
2022-12-19T16:34:26.917Z,87.12
2022-12-19T16:36:29.101Z,86.89
2022-12-19T16:38:31.254Z,86.43
2022-12-19T16:40:33.378Z,86.35
2022-12-19T16:42:35.393Z,86.37
2022-12-19T16:44:38.183Z,86.72
2022-12-19T16:46:42.182Z,86.94
2022-12-19T16:48:48.639Z,86.70
2022-12-19T16:50:51.241Z,86.62
2022-12-19T16:52:54.586Z,87.13
2022-12-19T16:54:56.717Z,87.31
2022-12-19T16:56:59.072Z,87.18
2022-12-19T16:59:04.738Z,87.97
2022-12-19T17:01:10.371Z,88.09
2022-12-19T17:03:27.845Z,87.91
2022-12-19T17:05:32.284Z,87.46
2022-12-19T17:07:34.417Z,86.83
2022-12-19T17:09:36.401Z,86.40
2022-12-19T17:11:45.640Z,86.60
2022-12-19T17:13:52.797Z,86.44
2022-12-19T17:15:57.313Z,86.92
2022-12-19T17:18:03.368Z,86.94
2022-12-19T17:20:06.699Z,86.55
2022-12-19T17:22:13.368Z,86.57
2022-12-19T17:24:15.963Z,86.18
2022-12-19T17:26:18.537Z,86.50
2022-12-19T17:28:21.126Z,86.47
2022-12-19T17:30:23.367Z,87.19
2022-12-19T17:32:25.491Z,87.19
2022-12-19T17:34:32.205Z,86.50
2022-12-19T17:36:37.540Z,86.68
2022-12-19T17:38:39.956Z,87.12
2022-12-19T17:40:42.656Z,86.64
2022-12-19T17:42:44.984Z,86.49
2022-12-19T17:44:47.135Z,87.11
2022-12-19T17:46:49.592Z,87.04
2022-12-19T17:48:53.472Z,87.29
2022-12-19T17:50:56.421Z,87.23
2022-12-19T17:52:58.642Z,88.06
2022-12-19T17:55:00.669Z,87.33
2022-12-19T17:57:02.727Z,87.07
2022-12-19T17:59:04.721Z,88.06
2022-12-19T18:01:16.510Z,88.48
2022-12-19T18:03:24.423Z,88.51
2022-12-19T18:05:29.608Z,87.93
2022-12-19T18:07:32.030Z,87.77
2022-12-19T18:09:34.017Z,87.82
2022-12-19T18:11:41.555Z,87.70
2022-12-19T18:13:44.201Z,88.33
2022-12-19T18:15:46.742Z,88.71
2022-12-19T18:17:50.549Z,89.63
2022-12-19T18:19:52.944Z,89.52
2022-12-19T18:21:54.952Z,88.98
2022-12-19T18:23:56.967Z,88.32
2022-12-19T18:26:01.800Z,88.15
2022-12-19T18:28:04.860Z,88.44
2022-12-19T18:30:10.453Z,88.48
2022-12-19T18:32:19.401Z,88.79
2022-12-19T18:34:24.436Z,89.91
2022-12-19T18:36:29.090Z,89.54
2022-12-19T18:38:31.138Z,88.90
2022-12-19T18:40:33.550Z,88.87
2022-12-19T18:42:35.571Z,88.60
2022-12-19T18:44:37.679Z,88.87
2022-12-19T18:46:40.358Z,89.25
2022-12-19T18:48:44.642Z,88.64
2022-12-19T18:50:47.383Z,88.58
2022-12-19T18:52:51.180Z,88.12
2022-12-19T18:54:53.642Z,89.18
2022-12-19T18:56:57.209Z,88.66
2022-12-19T18:59:03.821Z,89.03
2022-12-19T19:01:11.566Z,89.28
2022-12-19T19:03:18.176Z,89.03
2022-12-19T19:05:23.664Z,89.37
2022-12-19T19:07:25.752Z,89.09
2022-12-19T19:09:27.760Z,88.73
2022-12-19T19:11:30.187Z,88.56
2022-12-19T19:13:32.422Z,88.68
2022-12-19T19:15:37.564Z,89.95
2022-12-19T19:17:40.840Z,89.07
2022-12-19T19:19:42.935Z,88.74
2022-12-19T19:21:45.277Z,88.19
2022-12-19T19:23:55.521Z,87.95
2022-12-19T19:25:57.526Z,88.43
2022-12-19T19:27:59.621Z,88.05
2022-12-19T19:30:01.678Z,87.67
2022-12-19T19:32:03.738Z,87.46
2022-12-19T19:34:12.108Z,87.50
2022-12-19T19:36:19.497Z,88.26
2022-12-19T19:38:22.948Z,87.78
2022-12-19T19:40:25.570Z,88.07
2022-12-19T19:42:27.660Z,88.01
2022-12-19T19:44:30.361Z,88.16
2022-12-19T19:46:32.824Z,87.78
2022-12-19T19:48:35.138Z,88.26
2022-12-19T19:50:37.232Z,87.65
2022-12-19T19:52:40.442Z,87.47
2022-12-19T19:54:42.481Z,87.50
2022-12-19T19:56:44.613Z,87.69
2022-12-19T19:58:46.715Z,88.04
2022-12-19T20:00:48.856Z,88.94
2022-12-19T20:02:51.157Z,88.73
2022-12-19T20:04:53.182Z,89.25
2022-12-19T20:06:55.142Z,88.56
2022-12-19T20:08:57.093Z,88.22
2022-12-19T20:11:00.357Z,89.05
2022-12-19T20:13:02.356Z,89.53
2022-12-19T20:15:05.508Z,89.70
2022-12-19T20:17:07.492Z,90.12
2022-12-19T20:19:09.932Z,90.29
2022-12-19T20:21:13.782Z,89.63
2022-12-19T20:23:16.032Z,89.25
2022-12-19T20:25:18.281Z,88.99
2022-12-19T20:27:20.335Z,88.68
2022-12-19T20:29:22.413Z,88.55
2022-12-19T20:31:24.603Z,88.57
2022-12-19T20:33:26.789Z,88.46
2022-12-19T20:35:29.109Z,87.98
2022-12-19T20:37:31.140Z,87.99
2022-12-19T20:39:34.449Z,88.22
2022-12-19T20:41:36.481Z,87.24
2022-12-19T20:43:39.101Z,87.09
2022-12-19T20:45:41.186Z,86.46
2022-12-19T20:47:43.222Z,86.15
2022-12-19T20:49:45.342Z,85.28
2022-12-19T20:51:48.155Z,85.83
2022-12-19T20:53:54.841Z,85.87
2022-12-19T20:55:59.488Z,86.16
2022-12-19T20:58:01.663Z,86.46
2022-12-19T21:00:06.261Z,86.81
2022-12-19T21:02:09.906Z,86.49
2022-12-19T21:04:12.273Z,86.15
2022-12-19T21:06:15.911Z,85.75
2022-12-19T21:08:18.112Z,85.52
2022-12-19T21:10:20.809Z,85.36
2022-12-19T21:12:22.873Z,85.15
2022-12-19T21:14:24.952Z,85.11
2022-12-19T21:16:27.032Z,84.35
2022-12-19T21:18:30.589Z,83.98
2022-12-19T21:20:34.980Z,84.01
2022-12-19T21:22:37.175Z,84.03
2022-12-19T21:24:39.105Z,83.90
2022-12-19T21:26:41.243Z,84.08
2022-12-19T21:28:43.953Z,83.13
2022-12-19T21:30:45.999Z,82.63
2022-12-19T21:32:49.223Z,82.85
2022-12-19T21:34:53.366Z,83.49
2022-12-19T21:36:55.326Z,83.46
2022-12-19T21:39:00.124Z,83.09
2022-12-19T21:41:05.058Z,82.84
2022-12-19T21:43:11.698Z,82.55
2022-12-19T21:45:14.960Z,82.98
2022-12-19T21:47:17.814Z,82.79
2022-12-19T21:49:20.236Z,83.89
2022-12-19T21:51:25.712Z,83.70
2022-12-19T21:53:27.654Z,83.92
2022-12-19T21:55:29.677Z,83.51
2022-12-19T21:57:31.663Z,83.59
2022-12-19T21:59:33.623Z,83.77
2022-12-19T22:01:35.950Z,84.68
2022-12-19T22:03:39.796Z,85.12
2022-12-19T22:05:41.924Z,84.81
2022-12-19T22:07:43.908Z,84.88
2022-12-19T22:09:45.825Z,84.74
2022-12-19T22:11:47.918Z,85.23
2022-12-19T22:13:50.471Z,84.98
2022-12-19T22:15:52.578Z,85.00
2022-12-19T22:17:54.631Z,84.84
2022-12-19T22:19:56.565Z,84.30
2022-12-19T22:21:58.601Z,84.21
2022-12-19T22:24:02.714Z,83.98
2022-12-19T22:26:07.976Z,84.49
2022-12-19T22:28:10.000Z,84.57
2022-12-19T22:30:12.539Z,84.72
2022-12-19T22:32:14.556Z,83.99
2022-12-19T22:34:19.877Z,84.27
2022-12-19T22:36:28.117Z,84.42
2022-12-19T22:38:30.810Z,84.04
2022-12-19T22:40:34.482Z,84.42
2022-12-19T22:42:36.796Z,83.92
2022-12-19T22:44:38.806Z,83.96
2022-12-19T22:46:41.024Z,84.13
2022-12-19T22:48:44.065Z,83.91
2022-12-19T22:50:47.295Z,83.68
2022-12-19T22:52:49.560Z,83.37
2022-12-19T22:54:51.632Z,83.45
2022-12-19T22:56:53.746Z,83.45
2022-12-19T22:58:59.320Z,83.92
2022-12-19T23:01:03.379Z,83.99
2022-12-19T23:03:05.634Z,83.78
2022-12-19T23:05:09.110Z,84.49
2022-12-19T23:07:11.064Z,83.67
2022-12-19T23:09:16.476Z,83.45
2022-12-19T23:11:22.649Z,83.73
2022-12-19T23:13:25.761Z,83.62
2022-12-19T23:15:27.751Z,83.51
2022-12-19T23:17:30.245Z,83.54
2022-12-19T23:19:32.262Z,83.48
2022-12-19T23:21:34.238Z,83.26
2022-12-19T23:23:40.536Z,83.38
2022-12-19T23:25:42.836Z,83.29
2022-12-19T23:27:44.796Z,83.15
2022-12-19T23:29:47.405Z,83.38
2022-12-19T23:31:49.398Z,83.93
2022-12-19T23:33:51.496Z,83.80
2022-12-19T23:35:53.596Z,84.34
2022-12-19T23:37:55.554Z,83.97
2022-12-19T23:39:57.525Z,84.14
2022-12-19T23:42:00.033Z,84.19
2022-12-19T23:44:02.258Z,83.59
2022-12-19T23:46:07.763Z,83.58
2022-12-19T23:48:09.803Z,83.25
2022-12-19T23:50:12.363Z,83.79
2022-12-19T23:52:14.373Z,84.10
2022-12-19T23:54:16.827Z,83.97
2022-12-19T23:56:22.901Z,83.47
2022-12-19T23:58:25.421Z,82.99
